createdAt,value
2022-10-31T00:01:23.680Z,101960.38
2022-10-31T00:03:51.625Z,101963.97
2022-10-31T00:06:19.857Z,101969.81
2022-10-31T00:08:48.020Z,101958.66
2022-10-31T00:11:16.288Z,101967.38
2022-10-31T00:13:45.533Z,101970.25
2022-10-31T00:16:20.804Z,101974.22
2022-10-31T00:18:51.252Z,101972.69
2022-10-31T00:21:19.514Z,101972.84
2022-10-31T00:23:47.456Z,101992.88
2022-10-31T00:26:16.186Z,101985.53
2022-10-31T00:28:45.602Z,101983.28
2022-10-31T00:31:14.772Z,101987.44
2022-10-31T00:33:43.460Z,101984.84
2022-10-31T00:36:15.738Z,101987.94
2022-10-31T00:38:43.665Z,101988.00
2022-10-31T00:41:12.200Z,101990.75
2022-10-31T00:43:42.739Z,101991.94
2022-10-31T00:46:11.952Z,101996.56
2022-10-31T00:48:39.940Z,101995.06
2022-10-31T00:51:08.566Z,101999.00
2022-10-31T00:53:37.265Z,102000.22
2022-10-31T00:56:06.315Z,101998.28
2022-10-31T00:58:34.208Z,101995.03
2022-10-31T01:01:03.240Z,101996.22
2022-10-31T01:03:34.734Z,102000.66
2022-10-31T01:06:04.470Z,102004.78
2022-10-31T01:08:34.535Z,102001.91
2022-10-31T01:11:06.499Z,102002.00
2022-10-31T01:13:34.534Z,102009.16
2022-10-31T01:16:04.251Z,102009.03
2022-10-31T01:18:35.563Z,102011.63
2022-10-31T01:21:05.970Z,102012.44
2022-10-31T01:23:34.276Z,102011.28
2022-10-31T01:26:04.475Z,102016.44
2022-10-31T01:28:34.491Z,102009.59
2022-10-31T01:31:03.766Z,102020.19
2022-10-31T01:33:31.727Z,102019.88
2022-10-31T01:36:01.136Z,102014.06
2022-10-31T01:38:29.275Z,102012.34
2022-10-31T01:40:57.185Z,102017.50
2022-10-31T01:43:25.088Z,102006.00
2022-10-31T01:45:56.053Z,102004.66
2022-10-31T01:48:32.209Z,102006.03
2022-10-31T01:51:01.940Z,102000.38
2022-10-31T01:53:29.795Z,102008.25
2022-10-31T01:55:57.741Z,102002.97
2022-10-31T01:58:29.827Z,102008.25
2022-10-31T02:01:04.864Z,101997.63
2022-10-31T02:03:36.071Z,101998.97
2022-10-31T02:06:10.208Z,102007.91
2022-10-31T02:08:40.979Z,102006.88
2022-10-31T02:11:10.304Z,102005.31
2022-10-31T02:13:39.111Z,102003.34
2022-10-31T02:16:11.603Z,102015.22
2022-10-31T02:18:39.627Z,102001.66
2022-10-31T02:21:17.146Z,102001.34
2022-10-31T02:24:15.343Z,102010.41
2022-10-31T02:27:04.618Z,102014.50
2022-10-31T02:30:02.545Z,102003.00
2022-10-31T02:32:41.656Z,102006.94
2022-10-31T02:35:15.633Z,102014.28
2022-10-31T02:37:51.372Z,102000.19
2022-10-31T02:40:24.656Z,102001.22
2022-10-31T02:43:17.314Z,102001.94
2022-10-31T02:45:52.389Z,102003.66
2022-10-31T02:48:26.743Z,101997.50
2022-10-31T02:50:57.118Z,101994.16
2022-10-31T02:53:25.137Z,101993.41
2022-10-31T02:56:03.253Z,101991.81
2022-10-31T02:58:35.863Z,101996.91
2022-10-31T03:01:29.914Z,101997.78
2022-10-31T03:04:28.294Z,101998.25
2022-10-31T03:07:03.845Z,101999.47
2022-10-31T03:09:39.994Z,101991.81
2022-10-31T03:12:13.776Z,102000.72
2022-10-31T03:14:43.487Z,101999.59
2022-10-31T03:17:20.803Z,101996.28
2022-10-31T03:19:54.326Z,102000.31
2022-10-31T03:22:23.953Z,101990.88
2022-10-31T03:24:52.994Z,101993.31
2022-10-31T03:27:25.873Z,101994.34
2022-10-31T03:29:58.124Z,102001.88
2022-10-31T03:32:30.635Z,102001.53
2022-10-31T03:35:03.054Z,102001.84
2022-10-31T03:37:33.971Z,101999.09
2022-10-31T03:40:04.817Z,102007.53
2022-10-31T03:42:40.858Z,102011.66
2022-10-31T03:45:13.926Z,102011.34
2022-10-31T03:47:44.788Z,102009.09
2022-10-31T03:50:17.279Z,102015.97
2022-10-31T03:52:51.704Z,102016.97
2022-10-31T03:55:26.216Z,102007.75
2022-10-31T03:58:00.586Z,102013.69
2022-10-31T04:00:29.034Z,102017.13
2022-10-31T04:03:03.011Z,102015.44
2022-10-31T04:05:35.591Z,102018.38
2022-10-31T04:08:09.245Z,102024.06
2022-10-31T04:10:40.108Z,102017.88
2022-10-31T04:13:12.457Z,102022.19
2022-10-31T04:15:49.476Z,102020.47
2022-10-31T04:18:19.151Z,102018.59
2022-10-31T04:20:50.944Z,102023.34
2022-10-31T04:23:22.199Z,102018.19
2022-10-31T04:25:50.888Z,102017.31
2022-10-31T04:30:47.704Z,102019.44
2022-10-31T04:33:17.157Z,102020.06
2022-10-31T04:35:49.673Z,102021.41
2022-10-31T04:38:17.673Z,102021.41
2022-10-31T04:40:47.258Z,102019.06
2022-10-31T04:43:17.819Z,102022.28
2022-10-31T04:45:46.726Z,102025.56
2022-10-31T04:48:15.380Z,102015.13
2022-10-31T04:50:45.779Z,102015.47
2022-10-31T04:53:16.195Z,102012.63
2022-10-31T04:56:07.255Z,102014.59
2022-10-31T04:58:41.059Z,102011.31
2022-10-31T05:01:11.659Z,102012.34
2022-10-31T05:03:40.564Z,102014.38
2022-10-31T05:06:08.740Z,102011.44
2022-10-31T05:08:39.199Z,102010.25
2022-10-31T05:11:08.919Z,102009.41
2022-10-31T05:13:36.948Z,102007.34
2022-10-31T05:16:13.854Z,102009.22
2022-10-31T05:18:50.943Z,102010.63
2022-10-31T05:21:27.949Z,102016.66
2022-10-31T05:24:01.983Z,102003.47
2022-10-31T05:26:30.794Z,102009.28
2022-10-31T05:28:58.889Z,102012.34
2022-10-31T05:31:26.786Z,102014.38
2022-10-31T05:33:55.537Z,102014.06
2022-10-31T05:36:49.409Z,102015.56
2022-10-31T05:39:20.564Z,102029.97
2022-10-31T05:41:51.161Z,102018.53
2022-10-31T05:44:26.402Z,102021.94
2022-10-31T05:47:07.409Z,102020.41
2022-10-31T05:49:54.008Z,102023.63
2022-10-31T05:52:33.955Z,102024.13
2022-10-31T05:55:11.055Z,102028.25
2022-10-31T05:57:42.885Z,102024.47
2022-10-31T06:00:11.731Z,102017.31
2022-10-31T06:02:49.407Z,102025.66
2022-10-31T06:05:35.463Z,102027.72
2022-10-31T06:08:04.148Z,102030.47
2022-10-31T06:10:33.869Z,102024.97
2022-10-31T06:13:01.834Z,102013.16
2022-10-31T06:15:58.804Z,102020.13
2022-10-31T06:18:33.997Z,102017.22
2022-10-31T06:21:02.281Z,102023.19
2022-10-31T06:23:30.270Z,102022.03
2022-10-31T06:26:19.570Z,102025.59
2022-10-31T06:28:47.600Z,102027.50
2022-10-31T06:31:28.023Z,102026.84
2022-10-31T06:33:55.874Z,102027.31
2022-10-31T06:36:23.954Z,102024.03
2022-10-31T06:38:53.903Z,102027.50
2022-10-31T06:41:26.174Z,102020.44
2022-10-31T06:43:55.399Z,102016.69
2022-10-31T06:46:51.944Z,102021.16
2022-10-31T06:49:38.162Z,102018.25
2022-10-31T06:52:12.397Z,102011.59
2022-10-31T06:54:40.317Z,102024.25
2022-10-31T06:57:09.601Z,102015.91
2022-10-31T06:59:38.599Z,102022.38
2022-10-31T07:02:15.871Z,102021.38
2022-10-31T07:04:44.925Z,102014.16
2022-10-31T07:07:15.757Z,102008.53
2022-10-31T07:09:43.631Z,102018.47
2022-10-31T07:12:14.463Z,102026.22
2022-10-31T07:14:49.938Z,102025.75
2022-10-31T07:17:18.083Z,102023.00
2022-10-31T07:19:46.600Z,102027.75
2022-10-31T07:22:17.382Z,102022.50
2022-10-31T07:24:46.094Z,102031.81
2022-10-31T07:27:50.826Z,102031.66
2022-10-31T07:30:20.492Z,102034.22
2022-10-31T07:32:52.662Z,102035.81
2022-10-31T07:35:22.680Z,102022.59
2022-10-31T07:37:58.573Z,102036.66
2022-10-31T07:40:27.454Z,102033.63
2022-10-31T07:42:57.925Z,102033.38
2022-10-31T07:45:57.947Z,102035.97
2022-10-31T07:49:01.166Z,102030.13
2022-10-31T07:51:47.559Z,102039.81
2022-10-31T07:54:47.305Z,102036.38
2022-10-31T07:57:25.045Z,102031.44
2022-10-31T07:59:54.718Z,102043.13
2022-10-31T08:02:25.092Z,102042.41
2022-10-31T08:05:13.007Z,102046.00
2022-10-31T08:08:01.671Z,102044.72
2022-10-31T08:10:31.336Z,102042.88
2022-10-31T08:13:00.772Z,102041.38
2022-10-31T08:15:31.168Z,102047.59
2022-10-31T08:17:59.788Z,102040.03
2022-10-31T08:20:28.520Z,102045.38
2022-10-31T08:23:00.727Z,102044.53
2022-10-31T08:25:33.740Z,102047.47
2022-10-31T08:28:06.379Z,102043.91
2022-10-31T08:30:37.455Z,102051.97
2022-10-31T08:33:40.214Z,102049.06
2022-10-31T08:36:31.976Z,102049.72
2022-10-31T08:39:12.740Z,102047.69
2022-10-31T08:41:40.995Z,102050.16
2022-10-31T08:44:12.994Z,102048.09
2022-10-31T08:46:42.279Z,102051.84
2022-10-31T08:49:10.219Z,102057.31
2022-10-31T08:51:38.291Z,102055.78
2022-10-31T08:54:06.287Z,102055.09
2022-10-31T08:56:55.865Z,102056.84
2022-10-31T08:59:41.580Z,102063.13
2022-10-31T09:02:25.819Z,102053.91
2022-10-31T09:04:58.715Z,102059.88
2022-10-31T09:07:26.973Z,102050.28
2022-10-31T09:09:56.754Z,102052.75
2022-10-31T09:12:25.318Z,102051.91
2022-10-31T09:15:11.862Z,102050.16
2022-10-31T09:17:49.939Z,102048.13
2022-10-31T09:20:42.614Z,102049.34
2022-10-31T09:23:12.984Z,102050.03
2022-10-31T09:25:44.023Z,102052.91
2022-10-31T09:28:51.391Z,102048.69
2022-10-31T09:31:19.865Z,102042.81
2022-10-31T09:34:12.701Z,102044.81
2022-10-31T09:36:47.077Z,102048.47
2022-10-31T09:39:24.079Z,102041.06
2022-10-31T09:42:11.323Z,102041.47
2022-10-31T09:44:51.798Z,102038.72
2022-10-31T09:47:45.247Z,102035.84
2022-10-31T09:50:43.896Z,102037.69
2022-10-31T09:53:40.601Z,102036.44
2022-10-31T09:56:13.762Z,102033.19
2022-10-31T09:58:45.427Z,102034.56
2022-10-31T10:01:25.587Z,102045.06
2022-10-31T10:03:58.658Z,102031.84
2022-10-31T10:06:56.430Z,102027.41
2022-10-31T10:10:01.859Z,102033.56
2022-10-31T10:13:04.995Z,102037.97
2022-10-31T10:15:50.324Z,102034.91
2022-10-31T10:18:29.062Z,102042.66
2022-10-31T10:21:12.579Z,102032.94
2022-10-31T10:23:59.390Z,102035.16
2022-10-31T10:29:26.640Z,102022.75
2022-10-31T10:31:57.227Z,102020.19
2022-10-31T10:34:29.766Z,102014.50
2022-10-31T10:37:03.400Z,102024.97
2022-10-31T10:39:39.071Z,102027.38
2022-10-31T10:42:31.177Z,102014.69
2022-10-31T10:45:17.744Z,102016.75
2022-10-31T10:47:50.533Z,102003.94
2022-10-31T10:50:22.379Z,102004.13
2022-10-31T10:53:04.633Z,102009.81
2022-10-31T10:55:39.235Z,101998.94
2022-10-31T10:58:11.433Z,102007.50
2022-10-31T11:00:42.438Z,101995.66
2022-10-31T11:03:11.764Z,102001.16
2022-10-31T11:05:45.848Z,101999.13
2022-10-31T11:08:27.522Z,101985.94
2022-10-31T11:11:04.521Z,101993.31
2022-10-31T11:13:33.321Z,101989.22
2022-10-31T11:16:04.929Z,101987.81
2022-10-31T11:18:34.883Z,101984.91
2022-10-31T11:21:05.589Z,101977.34
2022-10-31T11:23:34.662Z,101981.13
2022-10-31T11:26:08.716Z,101973.75
2022-10-31T11:28:36.920Z,101968.59
2022-10-31T11:31:09.960Z,101968.78
2022-10-31T11:33:40.041Z,101965.31
2022-10-31T11:36:18.327Z,101983.34
2022-10-31T11:38:46.589Z,101972.38
2022-10-31T11:41:18.123Z,101960.53
2022-10-31T11:43:50.608Z,101959.16
2022-10-31T11:46:23.261Z,101954.53
2022-10-31T11:48:52.924Z,101946.28
2022-10-31T11:51:27.416Z,101938.84
2022-10-31T11:54:01.690Z,101927.50
2022-10-31T11:56:41.856Z,101917.47
2022-10-31T11:59:20.744Z,101909.94
2022-10-31T12:01:50.858Z,101903.72
2022-10-31T12:04:19.487Z,101914.50
2022-10-31T12:06:51.002Z,101906.28
2022-10-31T12:09:24.860Z,101892.16
2022-10-31T12:12:08.770Z,101885.28
2022-10-31T12:14:46.818Z,101881.66
2022-10-31T12:17:19.174Z,101879.78
2022-10-31T12:19:56.991Z,101885.41
2022-10-31T12:22:33.166Z,101883.81
2022-10-31T12:25:29.214Z,101887.91
2022-10-31T12:28:08.848Z,101881.28
2022-10-31T12:30:52.873Z,101871.81
2022-10-31T12:33:36.827Z,101861.00
2022-10-31T12:36:22.955Z,101862.69
2022-10-31T12:39:04.495Z,101844.50
2022-10-31T12:41:46.719Z,101834.63
2022-10-31T12:44:42.824Z,101825.53
2022-10-31T12:47:32.500Z,101806.63
2022-10-31T12:50:15.291Z,101797.72
2022-10-31T12:52:58.568Z,101792.69
2022-10-31T12:55:39.677Z,101792.22
2022-10-31T12:58:12.805Z,101785.47
2022-10-31T13:00:46.656Z,101788.50
2022-10-31T13:03:26.122Z,101777.97
2022-10-31T13:05:58.652Z,101783.50
2022-10-31T13:08:31.979Z,101791.38
2022-10-31T13:11:08.656Z,101785.53
2022-10-31T13:13:41.413Z,101775.16
2022-10-31T13:16:17.554Z,101759.78
2022-10-31T13:18:49.938Z,101744.50
2022-10-31T13:21:23.145Z,101739.66
2022-10-31T13:23:53.252Z,101747.75
2022-10-31T13:26:29.056Z,101772.34
2022-10-31T13:29:04.638Z,101772.03
2022-10-31T13:31:35.379Z,101764.91
2022-10-31T13:34:11.450Z,101763.03
2022-10-31T13:36:44.157Z,101752.50
2022-10-31T13:39:25.992Z,101751.91
2022-10-31T13:41:59.267Z,101751.06
2022-10-31T13:44:31.281Z,101748.31
2022-10-31T13:47:02.706Z,101740.91
2022-10-31T13:49:41.449Z,101732.47
2022-10-31T13:52:18.083Z,101730.84
2022-10-31T13:54:48.306Z,101729.88
2022-10-31T13:57:22.121Z,101720.41
2022-10-31T13:59:52.653Z,101706.56
2022-10-31T14:02:27.748Z,101697.06
2022-10-31T14:05:00.236Z,101689.00
2022-10-31T14:07:29.885Z,101681.59
2022-10-31T14:10:01.517Z,101690.22
2022-10-31T14:12:33.273Z,101686.25
2022-10-31T14:15:07.477Z,101687.28
2022-10-31T14:17:51.052Z,101687.94
2022-10-31T14:20:42.412Z,101685.19
2022-10-31T14:23:43.593Z,101675.88
2022-10-31T14:26:32.287Z,101676.28
2022-10-31T14:29:02.321Z,101667.91
2022-10-31T14:31:36.124Z,101669.81
2022-10-31T14:34:24.487Z,101648.66
2022-10-31T14:37:05.449Z,101647.41
2022-10-31T14:39:40.817Z,101654.31
2022-10-31T14:42:26.008Z,101659.47
2022-10-31T14:45:08.197Z,101641.91
2022-10-31T14:47:43.920Z,101642.09
2022-10-31T14:50:35.037Z,101645.50
2022-10-31T14:53:06.222Z,101652.91
2022-10-31T14:55:34.636Z,101642.97
2022-10-31T14:58:06.223Z,101640.22
2022-10-31T15:00:35.931Z,101641.25
2022-10-31T15:03:14.636Z,101644.16
2022-10-31T15:05:52.601Z,101636.13
2022-10-31T15:08:40.773Z,101631.47
2022-10-31T15:11:13.399Z,101626.53
2022-10-31T15:13:46.929Z,101620.38
2022-10-31T15:16:16.155Z,101618.84
2022-10-31T15:18:53.728Z,101616.28
2022-10-31T15:21:25.630Z,101612.56
2022-10-31T15:23:55.764Z,101602.81
2022-10-31T15:26:28.853Z,101598.97
2022-10-31T15:29:01.800Z,101597.09
2022-10-31T15:31:30.385Z,101591.78
2022-10-31T15:34:03.000Z,101591.09
2022-10-31T15:36:37.290Z,101586.00
2022-10-31T15:39:06.594Z,101583.25
2022-10-31T15:41:37.071Z,101586.38
2022-10-31T15:44:14.759Z,101580.00
2022-10-31T15:46:42.864Z,101571.97
2022-10-31T15:49:30.412Z,101564.34
2022-10-31T15:52:04.751Z,101568.34
2022-10-31T15:54:32.881Z,101564.25
2022-10-31T15:57:01.232Z,101558.09
2022-10-31T15:59:30.924Z,101564.66
2022-10-31T16:02:05.185Z,101560.38
2022-10-31T16:04:33.317Z,101563.31
2022-10-31T16:07:16.450Z,101563.13
2022-10-31T16:09:53.319Z,101548.69
2022-10-31T16:12:22.787Z,101550.09
2022-10-31T16:14:52.810Z,101549.94
2022-10-31T16:17:25.196Z,101542.06
2022-10-31T16:19:57.046Z,101544.13
2022-10-31T16:22:29.428Z,101546.44
2022-10-31T16:25:02.583Z,101539.00
2022-10-31T16:27:33.148Z,101544.97
2022-10-31T16:30:05.389Z,101531.81
2022-10-31T16:32:36.948Z,101531.13
2022-10-31T16:35:27.288Z,101523.56
2022-10-31T16:37:56.776Z,101520.88
2022-10-31T16:40:26.062Z,101518.13
2022-10-31T16:42:54.451Z,101520.88
2022-10-31T16:45:24.725Z,101520.03
2022-10-31T16:47:53.534Z,101509.22
2022-10-31T16:50:24.315Z,101517.66
2022-10-31T16:53:12.454Z,101512.84
2022-10-31T16:55:47.512Z,101522.97
2022-10-31T16:58:22.740Z,101520.25
2022-10-31T17:00:51.137Z,101524.19
2022-10-31T17:03:19.345Z,101521.63
2022-10-31T17:05:47.610Z,101509.94
2022-10-31T17:08:15.730Z,101508.03
2022-10-31T17:10:47.137Z,101496.88
2022-10-31T17:13:18.798Z,101507.69
2022-10-31T17:15:51.711Z,101491.75
2022-10-31T17:18:24.429Z,101494.00
2022-10-31T17:20:59.585Z,101476.84
2022-10-31T17:23:28.854Z,101476.84
2022-10-31T17:25:58.318Z,101467.94
2022-10-31T17:28:26.731Z,101462.81
2022-10-31T17:30:56.196Z,101461.09
2022-10-31T17:33:24.100Z,101458.19
2022-10-31T17:35:52.099Z,101450.09
2022-10-31T17:38:20.066Z,101459.59
2022-10-31T17:43:17.199Z,101430.59
2022-10-31T17:45:45.160Z,101435.03
2022-10-31T17:48:13.987Z,101437.78
2022-10-31T17:50:42.527Z,101427.63
2022-10-31T17:53:10.418Z,101426.78
2022-10-31T17:55:38.265Z,101419.38
2022-10-31T17:58:06.801Z,101416.16
2022-10-31T18:00:36.262Z,101413.41
2022-10-31T18:03:05.245Z,101403.66
2022-10-31T18:05:33.707Z,101394.16
2022-10-31T18:08:04.058Z,101389.75
2022-10-31T18:10:32.725Z,101385.28
2022-10-31T18:13:01.313Z,101386.50
2022-10-31T18:15:29.578Z,101371.34
2022-10-31T18:17:59.336Z,101370.28
2022-10-31T18:20:27.819Z,101360.34
2022-10-31T18:22:55.727Z,101357.78
2022-10-31T18:25:23.914Z,101340.81
2022-10-31T18:27:52.320Z,101328.78
2022-10-31T18:30:20.595Z,101341.00
2022-10-31T18:32:51.093Z,101336.56
2022-10-31T18:35:21.145Z,101343.94
2022-10-31T18:37:49.183Z,101339.50
2022-10-31T18:40:17.567Z,101337.97
2022-10-31T18:42:46.001Z,101324.63
2022-10-31T18:45:31.297Z,101319.97
2022-10-31T18:48:02.301Z,101325.47
2022-10-31T18:50:31.752Z,101316.16
2022-10-31T18:53:00.666Z,101304.69
2022-10-31T18:55:29.183Z,101299.88
2022-10-31T18:57:57.204Z,101296.09
2022-10-31T19:00:25.539Z,101305.00
2022-10-31T19:02:56.267Z,101284.91
2022-10-31T19:05:26.754Z,101295.91
2022-10-31T19:07:56.008Z,101299.03
2022-10-31T19:10:23.978Z,101296.09
2022-10-31T19:12:51.874Z,101292.97
2022-10-31T19:15:19.866Z,101279.69
2022-10-31T19:17:48.321Z,101269.94
2022-10-31T19:20:16.519Z,101259.78
2022-10-31T19:22:44.645Z,101250.03
2022-10-31T19:25:13.920Z,101243.50
2022-10-31T19:27:41.997Z,101236.28
2022-10-31T19:30:11.437Z,101238.56
2022-10-31T19:32:39.291Z,101233.94
2022-10-31T19:35:09.488Z,101234.50
2022-10-31T19:37:37.773Z,101229.88
2022-10-31T19:40:07.407Z,101238.09
2022-10-31T19:42:37.116Z,101229.22
2022-10-31T19:45:05.885Z,101222.66
2022-10-31T19:47:34.731Z,101221.84
2022-10-31T19:50:05.098Z,101220.97
2022-10-31T19:52:35.244Z,101216.34
2022-10-31T19:55:03.522Z,101209.31
2022-10-31T19:58:11.591Z,101195.56
2022-10-31T20:00:23.599Z,101191.97
2022-10-31T20:02:51.681Z,101180.97
2022-10-31T20:05:19.577Z,101178.22
2022-10-31T20:07:47.677Z,101170.59
2022-10-31T20:10:15.820Z,101162.13
2022-10-31T20:12:43.848Z,101160.91
2022-10-31T20:15:11.913Z,101165.34
2022-10-31T20:17:42.717Z,101156.44
2022-10-31T20:20:12.449Z,101157.69
2022-10-31T20:22:40.628Z,101149.47
2022-10-31T20:25:09.499Z,101137.78
2022-10-31T20:27:37.671Z,101143.69
2022-10-31T20:30:08.435Z,101143.69
2022-10-31T20:32:39.371Z,101132.50
2022-10-31T20:35:09.774Z,101128.91
2022-10-31T20:37:37.731Z,101120.66
2022-10-31T20:40:06.442Z,101109.00
2022-10-31T20:42:34.779Z,101120.38
2022-10-31T20:45:02.833Z,101132.44
2022-10-31T20:47:30.791Z,101138.31
2022-10-31T20:49:58.848Z,101129.22
2022-10-31T20:52:28.550Z,101123.44
2022-10-31T20:54:56.705Z,101123.34
2022-10-31T20:57:24.608Z,101115.78
2022-10-31T20:59:52.655Z,101112.66
2022-10-31T21:02:20.999Z,101110.66
2022-10-31T21:04:49.500Z,101111.13
2022-10-31T21:07:17.351Z,101108.59
2022-10-31T21:09:46.646Z,101114.09
2022-10-31T21:12:14.558Z,101116.38
2022-10-31T21:14:43.367Z,101114.94
2022-10-31T21:17:11.526Z,101105.38
2022-10-31T21:19:40.099Z,101112.75
2022-10-31T21:22:08.325Z,101108.59
2022-10-31T21:24:36.582Z,101100.13
2022-10-31T21:27:09.911Z,101099.50
2022-10-31T21:29:40.373Z,101107.91
2022-10-31T21:32:08.270Z,101103.88
2022-10-31T21:34:36.251Z,101103.88
2022-10-31T21:37:04.376Z,101095.81
2022-10-31T21:39:34.340Z,101086.72
2022-10-31T21:42:02.200Z,101087.72
2022-10-31T21:44:31.529Z,101088.06
2022-10-31T21:46:59.381Z,101082.41
2022-10-31T21:49:27.912Z,101082.09
2022-10-31T21:51:55.914Z,101076.25
2022-10-31T21:54:29.997Z,101066.97
2022-10-31T21:57:00.698Z,101071.50
2022-10-31T21:59:41.792Z,101076.50
2022-10-31T22:02:12.030Z,101075.69
2022-10-31T22:04:41.189Z,101072.38
2022-10-31T22:07:09.416Z,101067.63
2022-10-31T22:09:37.299Z,101055.53
2022-10-31T22:12:06.702Z,101039.91
2022-10-31T22:14:36.409Z,101040.09
2022-10-31T22:17:04.351Z,101044.72
2022-10-31T22:19:32.360Z,101044.94
2022-10-31T22:22:00.495Z,101036.69
2022-10-31T22:24:28.898Z,101022.59
2022-10-31T22:26:56.797Z,101029.38
2022-10-31T22:29:24.665Z,101030.22
2022-10-31T22:31:58.637Z,101023.88
2022-10-31T22:34:29.821Z,101014.75
2022-10-31T22:36:57.763Z,101011.59
2022-10-31T22:39:25.817Z,101015.38
2022-10-31T22:41:53.766Z,101006.03
2022-10-31T22:44:21.891Z,100999.69
2022-10-31T22:46:49.745Z,100997.59
2022-10-31T22:49:18.968Z,100992.97
2022-10-31T22:51:47.088Z,100995.88
2022-10-31T22:54:16.764Z,100986.53
2022-10-31T22:56:45.473Z,100982.75
2022-10-31T22:59:14.811Z,100977.38
2022-10-31T23:01:44.757Z,100972.25
2022-10-31T23:04:13.522Z,100978.31
2022-10-31T23:06:43.063Z,100972.81
2022-10-31T23:09:15.515Z,100966.56
2022-10-31T23:11:43.881Z,100968.84
2022-10-31T23:14:14.058Z,100961.47
2022-10-31T23:16:44.719Z,100967.16
2022-10-31T23:19:14.913Z,100959.56
2022-10-31T23:21:56.152Z,100960.22
2022-10-31T23:24:26.746Z,100950.31
2022-10-31T23:27:10.200Z,100951.34
2022-10-31T23:29:41.296Z,100940.34
2022-10-31T23:32:11.466Z,100932.34
2022-10-31T23:34:39.474Z,100924.34
2022-10-31T23:37:08.975Z,100923.44
2022-10-31T23:39:37.107Z,100924.75
2022-10-31T23:42:05.103Z,100923.44
2022-10-31T23:44:33.263Z,100922.13
2022-10-31T23:47:01.280Z,100926.03
2022-10-31T23:49:29.639Z,100916.84
2022-10-31T23:51:57.894Z,100916.44
2022-10-31T23:54:28.862Z,100911.13
2022-10-31T23:56:58.091Z,100906.97
2022-10-31T23:59:26.773Z,100908.00
